Time;durP1;ratioP1;P1;durP2;ratioP2;P2;SDS_P1;SDS_P2;PMS_P1;PMS_P2;Temp;Humidity;BMP_temperature;BMP_pressure;BME280_temperature;BME280_humidity;BME280_pressure;Samples;Min_cycle;Max_cycle;Signal;HPM_P1;HPM_P2
2022/05/03 00:00:35;;;;;;;7.50;5.37;;;11.80;99.90;;;;;;5057532;28;20165;-79
2022/05/03 00:03:24;;;;;;;7.77;5.17;;;11.90;99.90;;;;;;5057069;28;20644;-81
2022/05/03 00:06:19;;;;;;;7.77;5.07;;;11.90;99.90;;;;;;5057733;28;20208;-78
2022/05/03 00:08:53;;;;;;;7.33;5.00;;;11.90;99.90;;;;;;5057292;28;20259;-80
2022/05/03 00:11:51;;;;;;;7.23;5.10;;;11.90;99.90;;;;;;5057301;28;20727;-81
2022/05/03 00:14:20;;;;;;;8.93;5.00;;;11.90;99.90;;;;;;5057364;28;20533;-81
2022/05/03 00:16:50;;;;;;;5.87;5.13;;;11.80;99.90;;;;;;5052833;28;20220;-78
2022/05/03 00:19:15;;;;;;;8.83;5.13;;;11.80;99.90;;;;;;5037184;28;20542;-79
2022/05/03 00:21:41;;;;;;;7.17;5.03;;;11.70;99.90;;;;;;5038082;28;20170;-80
2022/05/03 00:24:07;;;;;;;6.97;4.93;;;11.70;99.90;;;;;;5037652;28;20205;-79
2022/05/03 00:26:35;;;;;;;8.70;5.30;;;11.60;1.00;;;;;;5037483;28;20367;-79
2022/05/03 00:29:01;;;;;;;6.23;5.00;;;11.60;1.00;;;;;;5038670;28;20661;-81
2022/05/03 00:31:28;;;;;;;6.37;4.60;;;11.60;1.00;;;;;;5039123;28;20195;-80
2022/05/03 00:33:55;;;;;;;7.00;5.20;;;11.50;1.00;;;;;;5044707;28;20173;-80
2022/05/03 00:36:22;;;;;;;9.80;5.00;;;11.50;1.00;;;;;;5046183;28;20166;-78
2022/05/03 00:38:48;;;;;;;8.40;5.73;;;11.50;1.00;;;;;;5057662;28;20172;-79
2022/05/03 00:41:41;;;;;;;8.37;4.67;;;11.50;1.00;;;;;;5055921;28;20177;-81
2022/05/03 00:47:44;;;;;;;6.83;4.90;;;11.50;1.00;;;;;;5056430;28;20192;-81
2022/05/03 00:50:28;;;;;;;7.43;5.47;;;11.50;1.00;;;;;;5057711;28;20165;-80
2022/05/03 00:53:17;;;;;;;6.90;5.50;;;11.40;1.00;;;;;;5056657;28;20227;-81
2022/05/03 00:56:20;;;;;;;7.10;5.43;;;11.40;1.00;;;;;;5039148;28;20181;-80
2022/05/03 00:59:21;;;;;;;6.67;5.30;;;11.40;1.00;;;;;;5038596;28;20169;-80
2022/05/03 01:02:07;;;;;;;7.70;5.83;;;11.40;1.00;;;;;;5036456;28;20158;-82
2022/05/03 01:05:06;;;;;;;7.87;5.43;;;11.30;1.00;;;;;;5036360;28;20281;-80
2022/05/03 01:07:50;;;;;;;7.60;5.20;;;11.20;1.00;;;;;;5035770;28;20146;-82
2022/05/03 01:10:47;;;;;;;7.90;5.90;;;11.20;1.00;;;;;;5036365;28;20166;-79
2022/05/03 01:13:34;;;;;;;7.70;5.97;;;11.10;1.00;;;;;;5035645;28;20174;-80
2022/05/03 01:16:11;;;;;;;7.07;5.30;;;11.10;1.00;;;;;;5038269;28;20194;-80
2022/05/03 01:18:53;;;;;;;6.87;6.17;;;11.10;1.00;;;;;;5056436;28;20227;-78
2022/05/03 01:21:42;;;;;;;6.60;5.77;;;11.10;1.00;;;;;;5055866;28;20165;-79
2022/05/03 01:24:32;;;;;;;6.33;5.43;;;11.00;1.00;;;;;;5056185;28;20216;-81
2022/05/03 01:27:37;;;;;;;8.17;5.63;;;11.00;1.00;;;;;;5055571;28;20165;-80
2022/05/03 01:30:03;;;;;;;6.40;5.50;;;11.00;1.00;;;;;;5054682;28;20169;-80
2022/05/03 01:32:32;;;;;;;6.80;5.27;;;10.90;1.00;;;;;;5055308;28;20180;-79
2022/05/03 01:35:00;;;;;;;8.80;5.73;;;10.90;1.00;;;;;;5054486;28;20621;-80
2022/05/03 01:37:30;;;;;;;10.47;6.10;;;10.90;1.00;;;;;;5049563;28;20200;-80
2022/05/03 01:40:11;;;;;;;9.13;5.70;;;11.00;1.00;;;;;;5035378;28;20169;-79
2022/05/03 01:43:16;;;;;;;9.97;5.83;;;10.90;1.00;;;;;;5035458;28;20215;-80
2022/05/03 01:46:21;;;;;;;6.00;5.13;;;10.80;1.00;;;;;;4996815;28;20222;-80
2022/05/03 01:52:05;;;;;;;7.50;5.97;;;10.80;1.00;;;;;;5035191;28;20181;-79
2022/05/03 01:54:36;;;;;;;7.03;5.50;;;10.80;1.00;;;;;;5034703;28;20169;-80
2022/05/03 01:57:14;;;;;;;6.90;5.50;;;10.80;1.00;;;;;;5034687;28;20176;-81
2022/05/03 01:59:48;;;;;;;9.60;6.00;;;10.80;1.00;;;;;;5034704;28;20291;-81
2022/05/03 02:02:44;;;;;;;8.83;6.53;;;10.70;1.00;;;;;;5034462;28;20641;-80
2022/05/03 02:05:28;;;;;;;7.17;5.57;;;10.70;1.00;;;;;;5034434;28;20685;-80
2022/05/03 02:07:57;;;;;;;7.40;5.60;;;10.70;1.00;;;;;;5034672;28;20816;-80
2022/05/03 02:10:36;;;;;;;6.87;6.00;;;10.80;1.00;;;;;;5034455;28;20198;-78
2022/05/03 02:13:20;;;;;;;8.03;5.73;;;10.70;1.00;;;;;;5033373;28;20264;-79
2022/05/03 02:15:49;;;;;;;7.70;6.27;;;10.70;1.00;;;;;;5034231;28;20213;-80
2022/05/03 02:18:26;;;;;;;9.90;6.53;;;10.60;1.00;;;;;;5033442;28;20170;-82
2022/05/03 02:21:15;;;;;;;8.50;5.87;;;10.60;1.00;;;;;;5032855;28;20176;-80
2022/05/03 02:23:51;;;;;;;8.83;6.50;;;10.60;1.00;;;;;;5034302;28;20750;-80
2022/05/03 02:26:28;;;;;;;10.17;6.73;;;10.60;1.00;;;;;;5034191;28;20192;-81
2022/05/03 02:29:13;;;;;;;12.87;6.30;;;10.70;1.00;;;;;;5034246;28;20180;-80
2022/05/03 02:31:52;;;;;;;7.90;6.40;;;10.60;1.00;;;;;;5034052;28;20177;-80
2022/05/03 02:34:47;;;;;;;6.97;5.97;;;10.60;1.00;;;;;;5033803;28;20171;-80
2022/05/03 02:37:38;;;;;;;8.57;6.33;;;10.60;1.00;;;;;;5034097;28;20221;-80
2022/05/03 02:40:09;;;;;;;8.37;6.33;;;10.60;1.00;;;;;;5031909;28;20174;-80
2022/05/03 02:42:36;;;;;;;8.33;6.63;;;10.50;1.00;;;;;;5032883;28;20223;-79
2022/05/03 02:45:04;;;;;;;8.03;6.60;;;10.50;1.00;;;;;;5033650;28;20205;-81
2022/05/03 02:47:58;;;;;;;8.03;6.77;;;10.50;1.00;;;;;;5033392;28;20661;-81
2022/05/03 02:50:49;;;;;;;8.10;6.50;;;10.50;1.00;;;;;;5033736;28;20158;-80
2022/05/03 02:53:32;;;;;;;8.87;6.17;;;10.50;1.00;;;;;;5026291;28;20244;-79
2022/05/03 02:56:26;;;;;;;8.23;7.33;;;10.40;1.00;;;;;;5033635;28;20538;-80
2022/05/03 02:59:16;;;;;;;9.37;6.90;;;10.30;1.00;;;;;;5033638;28;20162;-80
2022/05/03 03:02:00;;;;;;;8.40;6.77;;;10.30;1.00;;;;;;5033317;28;20157;-79
2022/05/03 03:04:32;;;;;;;10.93;7.27;;;10.30;1.00;;;;;;5033481;28;20212;-78
2022/05/03 03:06:59;;;;;;;8.90;7.70;;;10.30;1.00;;;;;;5032775;28;20168;-81
2022/05/03 03:09:46;;;;;;;10.57;7.50;;;10.20;1.00;;;;;;5033672;28;20166;-78
2022/05/03 03:12:30;;;;;;;10.83;7.53;;;10.20;1.00;;;;;;5032885;28;20661;-79
2022/05/03 03:15:06;;;;;;;8.50;7.30;;;10.20;1.00;;;;;;5033642;28;20236;-79
2022/05/03 03:17:36;;;;;;;8.43;7.17;;;10.10;1.00;;;;;;5048428;28;20288;-79
2022/05/03 03:20:05;;;;;;;9.57;7.50;;;10.20;1.00;;;;;;5048925;28;20165;-78
2022/05/03 03:22:39;;;;;;;10.20;7.80;;;10.10;1.00;;;;;;5033522;28;20184;-80
2022/05/03 03:25:07;;;;;;;7.80;7.00;;;10.10;1.00;;;;;;5033653;28;20204;-80
2022/05/03 03:27:35;;;;;;;9.83;7.40;;;10.10;1.00;;;;;;5033497;28;20525;-79
2022/05/03 03:30:04;;;;;;;8.70;7.57;;;10.10;1.00;;;;;;5035360;28;20291;-79
2022/05/03 03:32:30;;;;;;;8.17;7.23;;;10.10;1.00;;;;;;5050808;28;20374;-79
2022/05/03 03:34:58;;;;;;;10.23;7.30;;;10.20;1.00;;;;;;5035907;28;20174;-79
2022/05/03 03:37:27;;;;;;;10.67;8.07;;;10.10;1.00;;;;;;5033579;28;20166;-79
2022/05/03 03:39:53;;;;;;;8.80;7.13;;;10.10;1.00;;;;;;5033362;28;20165;-78
2022/05/03 03:42:19;;;;;;;9.73;7.93;;;10.10;1.00;;;;;;5059921;28;20173;-78
2022/05/03 03:44:46;;;;;;;12.03;7.23;;;10.10;1.00;;;;;;5052915;28;20201;-81
2022/05/03 03:47:13;;;;;;;9.40;7.57;;;10.10;1.00;;;;;;5052825;28;20172;-80
2022/05/03 03:49:39;;;;;;;8.83;7.27;;;10.20;1.00;;;;;;5017037;28;20258;-77
2022/05/03 03:52:07;;;;;;;10.20;7.63;;;10.10;1.00;;;;;;5011795;28;20185;-79
2022/05/03 03:54:35;;;;;;;9.13;7.37;;;10.10;1.00;;;;;;5013310;28;20159;-79
2022/05/03 03:57:04;;;;;;;9.37;6.83;;;10.10;1.00;;;;;;5013427;28;20176;-78
2022/05/03 03:59:31;;;;;;;10.23;7.40;;;10.00;1.00;;;;;;5013574;28;20173;-80
2022/05/03 04:02:01;;;;;;;9.93;7.37;;;9.90;1.00;;;;;;5012722;28;20174;-78
2022/05/03 04:04:30;;;;;;;8.40;7.03;;;9.90;1.00;;;;;;5013302;28;20221;-79
2022/05/03 04:06:56;;;;;;;10.87;6.87;;;9.90;1.00;;;;;;5013381;28;20533;-79
2022/05/03 04:09:22;;;;;;;7.83;6.43;;;9.80;1.00;;;;;;5012198;28;20185;-79
2022/05/03 04:11:48;;;;;;;12.60;7.80;;;9.80;1.00;;;;;;5012861;28;20178;-79
2022/05/03 04:14:14;;;;;;;9.90;7.20;;;9.80;1.00;;;;;;5012752;28;20248;-81
2022/05/03 04:16:41;;;;;;;9.37;7.20;;;9.70;1.00;;;;;;5011740;28;20205;-80
2022/05/03 04:19:07;;;;;;;8.73;7.17;;;9.70;1.00;;;;;;5013185;28;20178;-81
2022/05/03 04:21:33;;;;;;;9.83;6.80;;;9.70;1.00;;;;;;5013447;28;20253;-81
2022/05/03 04:23:59;;;;;;;8.20;6.60;;;9.70;1.00;;;;;;5013037;28;20171;-80
2022/05/03 04:26:26;;;;;;;11.37;6.90;;;9.70;1.00;;;;;;5015556;28;20257;-80
2022/05/03 04:29:02;;;;;;;9.10;6.77;;;9.70;1.00;;;;;;5014190;28;20178;-80
2022/05/03 04:31:30;;;;;;;9.20;6.87;;;9.70;1.00;;;;;;5012215;28;20182;-80
2022/05/03 04:33:56;;;;;;;9.27;6.53;;;9.70;1.00;;;;;;5012752;28;20174;-80
2022/05/03 04:36:25;;;;;;;10.20;7.17;;;9.70;1.00;;;;;;5013216;28;20171;-80
2022/05/03 04:38:51;;;;;;;8.00;6.53;;;9.70;1.00;;;;;;5013001;28;20181;-79
2022/05/03 04:41:17;;;;;;;9.30;7.83;;;9.70;1.00;;;;;;5014189;28;20182;-80
2022/05/03 04:43:43;;;;;;;8.63;7.13;;;9.70;1.00;;;;;;5016620;28;20179;-79
2022/05/03 04:46:09;;;;;;;10.73;7.63;;;9.80;1.00;;;;;;5016922;28;20206;-80
2022/05/03 04:48:34;;;;;;;10.10;6.80;;;9.70;1.00;;;;;;5016284;28;20646;-80
2022/05/03 04:51:00;;;;;;;11.67;6.90;;;9.70;1.00;;;;;;5017329;28;20174;-79
2022/05/03 04:53:26;;;;;;;11.87;7.37;;;9.80;1.00;;;;;;5015508;28;20179;-80
2022/05/03 04:55:51;;;;;;;9.97;6.77;;;9.80;1.00;;;;;;5016819;28;20178;-80
2022/05/03 04:58:17;;;;;;;10.57;7.50;;;9.70;1.00;;;;;;5016880;28;20528;-79
2022/05/03 05:00:44;;;;;;;11.10;7.13;;;9.70;1.00;;;;;;5016815;28;20183;-79
2022/05/03 05:03:09;;;;;;;11.20;7.10;;;9.80;1.00;;;;;;5016873;28;20325;-81
2022/05/03 05:05:35;;;;;;;10.77;6.87;;;9.90;1.00;;;;;;5017468;28;20665;-80
2022/05/03 05:08:05;;;;;;;11.83;6.87;;;10.00;1.00;;;;;;5017207;28;20210;-80
2022/05/03 05:10:32;;;;;;;10.33;6.63;;;10.10;1.00;;;;;;5017852;28;20174;-79
2022/05/03 05:12:59;;;;;;;11.17;7.20;;;10.10;1.00;;;;;;5021057;28;20175;-79
2022/05/03 05:15:25;;;;;;;9.87;6.70;;;10.10;1.00;;;;;;5032491;28;20170;-78
2022/05/03 05:17:51;;;;;;;11.43;6.20;;;10.10;1.00;;;;;;5033827;28;20198;-80
2022/05/03 05:20:17;;;;;;;11.67;6.93;;;10.00;1.00;;;;;;5046240;28;20186;-80
2022/05/03 05:22:44;;;;;;;9.47;6.87;;;10.00;1.00;;;;;;5040677;28;20180;-78
2022/05/03 05:25:10;;;;;;;8.20;6.20;;;10.10;1.00;;;;;;5041434;28;20213;-78
2022/05/03 05:27:36;;;;;;;10.73;6.40;;;10.30;1.00;;;;;;5043611;28;20169;-79
2022/05/03 05:30:06;;;;;;;11.97;7.47;;;10.10;1.00;;;;;;5041679;28;20598;-80
2022/05/03 05:32:35;;;;;;;12.53;7.00;;;10.10;1.00;;;;;;5035593;28;20660;-80
2022/05/03 05:35:05;;;;;;;11.50;6.83;;;10.10;1.00;;;;;;5036489;28;20170;-80
2022/05/03 05:37:32;;;;;;;10.73;7.40;;;10.20;1.00;;;;;;5056967;28;20248;-78
2022/05/03 05:39:58;;;;;;;9.17;6.97;;;10.20;1.00;;;;;;5046346;28;20174;-77
2022/05/03 05:42:27;;;;;;;9.40;7.57;;;10.40;1.00;;;;;;5045369;28;20601;-81
2022/05/03 05:44:53;;;;;;;9.27;7.13;;;10.40;1.00;;;;;;5042680;28;20217;-81
2022/05/03 05:47:20;;;;;;;8.10;6.40;;;10.40;1.00;;;;;;5043223;28;20685;-82
2022/05/03 05:49:51;;;;;;;7.33;6.03;;;10.40;1.00;;;;;;5049325;28;20161;-81
2022/05/03 05:55:03;;;;;;;11.73;6.80;;;10.30;1.00;;;;;;5033907;28;20168;-81
2022/05/03 05:57:29;;;;;;;10.20;6.80;;;10.30;1.00;;;;;;5021830;28;20174;-82
2022/05/03 05:59:54;;;;;;;10.07;6.67;;;10.40;1.00;;;;;;5019314;28;20553;-82
2022/05/03 06:02:20;;;;;;;8.57;6.20;;;10.40;1.00;;;;;;5031909;28;20196;-81
2022/05/03 06:04:47;;;;;;;10.13;6.87;;;10.50;1.00;;;;;;5035942;28;20197;-81
2022/05/03 06:07:13;;;;;;;11.63;7.17;;;10.40;1.00;;;;;;5036377;28;20161;-80
2022/05/03 06:09:38;;;;;;;10.37;7.13;;;10.50;99.90;;;;;;5032538;28;20178;-79
2022/05/03 06:12:04;;;;;;;9.07;7.27;;;10.30;99.90;;;;;;5035996;28;20180;-80
2022/05/03 06:14:32;;;;;;;11.20;6.90;;;10.60;99.90;;;;;;5036444;28;20193;-83
2022/05/03 06:16:57;;;;;;;7.77;6.43;;;10.80;99.90;;;;;;5035209;28;20193;-81
2022/05/03 06:19:24;;;;;;;10.83;7.10;;;10.80;99.90;;;;;;5037229;28;20216;-81
2022/05/03 06:21:50;;;;;;;9.00;6.30;;;10.70;99.90;;;;;;5035246;28;20174;-84
2022/05/03 06:24:17;;;;;;;11.70;6.97;;;10.80;99.90;;;;;;5036902;28;20244;-81
2022/05/03 06:26:44;;;;;;;12.47;7.07;;;10.80;99.90;;;;;;5036217;28;20716;-84
2022/05/03 06:29:09;;;;;;;13.43;6.53;;;10.90;99.90;;;;;;5048808;28;20150;-84
2022/05/03 06:31:38;;;;;;;11.60;7.20;;;10.80;99.90;;;;;;5056030;28;20206;-82
2022/05/03 06:34:05;;;;;;;10.63;7.10;;;10.90;99.90;;;;;;5054603;28;20181;-83
2022/05/03 06:36:31;;;;;;;11.60;6.90;;;10.90;99.90;;;;;;5052010;28;20492;-81
2022/05/03 06:38:59;;;;;;;8.37;6.77;;;10.90;99.90;;;;;;5055574;28;20204;-80
2022/05/03 06:41:25;;;;;;;13.03;6.57;;;11.00;99.90;;;;;;5053419;28;20192;-81
2022/05/03 06:43:50;;;;;;;10.23;6.87;;;11.10;99.90;;;;;;5048521;28;20186;-82
2022/05/03 06:46:20;;;;;;;10.37;6.23;;;11.10;99.90;;;;;;5047508;28;20180;-82
2022/05/03 06:48:45;;;;;;;9.37;6.27;;;11.20;99.90;;;;;;5047150;28;20158;-80
2022/05/03 06:51:18;;;;;;;10.50;7.20;;;11.30;99.90;;;;;;5048597;28;20192;-80
2022/05/03 06:53:53;;;;;;;10.70;6.10;;;11.40;99.90;;;;;;5038055;28;20162;-84
2022/05/03 06:56:22;;;;;;;9.27;6.60;;;11.60;1.00;;;;;;5044479;28;20181;-81
2022/05/03 06:58:47;;;;;;;13.53;6.80;;;11.60;1.00;;;;;;5039343;28;20236;-82
2022/05/03 07:01:14;;;;;;;10.67;6.67;;;11.70;99.90;;;;;;5036567;28;20194;-81
2022/05/03 07:03:41;;;;;;;9.00;5.67;;;11.80;99.90;;;;;;5034424;28;20665;-83
2022/05/03 07:06:08;;;;;;;10.63;6.03;;;11.90;99.90;;;;;;5037634;28;20201;-84
2022/05/03 07:08:35;;;;;;;10.33;5.90;;;11.90;1.00;;;;;;5035996;28;20582;-83
2022/05/03 07:11:02;;;;;;;9.83;6.03;;;12.00;99.90;;;;;;5038288;28;20648;-83
2022/05/03 07:13:28;;;;;;;12.30;5.73;;;12.20;99.90;;;;;;5048928;28;20186;-83
2022/05/03 07:15:55;;;;;;;9.60;5.77;;;12.20;1.00;;;;;;5047154;28;20194;-83
2022/05/03 07:23:52;;;;;;;10.27;5.20;;;12.10;27.10;;;;;;5047026;28;20221;-83
2022/05/03 07:26:21;;;;;;;8.73;4.90;;;12.20;1.00;;;;;;5041344;28;20197;-82
2022/05/03 07:28:48;;;;;;;7.60;4.77;;;12.40;1.00;;;;;;5037344;28;20181;-84
2022/05/03 07:31:20;;;;;;;8.17;4.60;;;12.40;1.00;;;;;;5035441;28;20180;-84
2022/05/03 07:33:52;;;;;;;6.87;4.97;;;12.40;99.90;;;;;;5034953;28;20205;-82
2022/05/03 07:36:29;;;;;;;8.70;4.93;;;12.40;1.00;;;;;;5034582;28;20264;-83
2022/05/03 07:39:07;;;;;;;5.57;4.60;;;12.40;99.90;;;;;;5033858;28;20721;-83
2022/05/03 07:41:36;;;;;;;6.70;4.47;;;12.50;99.90;;;;;;5035012;28;20227;-83
2022/05/03 07:44:02;;;;;;;6.13;4.20;;;12.60;1.00;;;;;;5035875;28;20225;-83
2022/05/03 07:46:28;;;;;;;6.83;4.80;;;12.60;1.00;;;;;;5034141;28;20213;-83
2022/05/03 07:48:56;;;;;;;7.80;5.00;;;12.60;1.00;;;;;;5035470;28;20615;-82
2022/05/03 07:51:22;;;;;;;7.70;4.50;;;12.70;7.80;;;;;;5036972;28;20614;-84
2022/05/03 07:53:50;;;;;;;7.83;4.60;;;13.00;99.90;;;;;;5035434;28;20320;-83
2022/05/03 07:56:16;;;;;;;8.47;4.70;;;13.10;27.70;;;;;;5037775;28;20246;-80
2022/05/03 07:58:42;;;;;;;6.70;4.80;;;13.20;1.00;;;;;;5047834;28;20637;-81
2022/05/03 08:01:08;;;;;;;6.90;4.73;;;13.40;99.90;;;;;;5052788;28;20180;-82
2022/05/03 08:03:35;;;;;;;7.60;4.60;;;13.50;99.90;;;;;;5053049;28;20169;-83
2022/05/03 08:06:02;;;;;;;7.77;4.77;;;13.70;99.90;;;;;;5048482;28;20223;-80
2022/05/03 08:08:28;;;;;;;6.80;4.30;;;13.80;99.90;;;;;;5052257;28;20168;-82
2022/05/03 08:10:54;;;;;;;6.20;4.00;;;13.90;1.00;;;;;;5055346;28;20171;-82
2022/05/03 08:13:19;;;;;;;8.47;4.10;;;13.80;1.00;;;;;;5052624;28;20583;-83
2022/05/03 08:15:46;;;;;;;7.50;4.07;;;13.90;1.00;;;;;;5063119;28;20211;-84
2022/05/03 08:18:12;;;;;;;6.27;4.00;;;13.90;1.00;;;;;;5041684;28;20240;-84
2022/05/03 08:20:38;;;;;;;6.80;3.77;;;14.20;1.00;;;;;;5041096;28;20250;-83
2022/05/03 08:23:04;;;;;;;6.33;3.80;;;14.10;1.00;;;;;;5040743;28;20620;-84
2022/05/03 08:25:29;;;;;;;5.97;4.20;;;14.10;1.00;;;;;;5041212;28;20198;-83
2022/05/03 08:27:58;;;;;;;5.27;3.97;;;14.10;1.00;;;;;;5039312;28;20174;-83
2022/05/03 08:30:24;;;;;;;6.10;3.80;;;14.20;1.00;;;;;;5039044;28;20241;-82
2022/05/03 08:32:55;;;;;;;6.23;4.37;;;14.10;1.00;;;;;;5038675;28;20628;-84
2022/05/03 08:35:24;;;;;;;5.37;3.97;;;14.20;1.00;;;;;;5038271;28;20176;-82
2022/05/03 08:43:18;;;;;;;8.60;5.07;;;14.30;1.00;;;;;;5037690;28;20723;-85
2022/05/03 08:45:48;;;;;;;8.67;4.93;;;14.40;13.10;;;;;;5040395;28;20234;-85
2022/05/03 08:48:16;;;;;;;7.70;5.43;;;14.40;1.00;;;;;;5038123;28;20202;-83
2022/05/03 08:50:43;;;;;;;6.60;5.23;;;14.70;54.00;;;;;;5037393;28;20186;-83
2022/05/03 08:53:11;;;;;;;7.50;5.57;;;14.60;99.90;;;;;;5036200;28;20529;-84
2022/05/03 08:55:40;;;;;;;7.60;5.53;;;14.60;99.90;;;;;;5038573;28;20248;-83
2022/05/03 08:58:06;;;;;;;8.27;5.63;;;14.50;1.00;;;;;;5036042;28;20175;-81
2022/05/03 09:00:33;;;;;;;7.57;5.67;;;14.50;1.00;;;;;;5037528;28;20167;-84
2022/05/03 09:02:59;;;;;;;7.73;5.77;;;14.70;99.90;;;;;;5037972;28;20183;-85
2022/05/03 09:05:25;;;;;;;7.43;5.70;;;14.60;1.00;;;;;;5036488;28;20264;-82
2022/05/03 09:07:52;;;;;;;9.73;5.97;;;14.60;99.90;;;;;;5037996;28;20637;-82
2022/05/03 09:10:20;;;;;;;6.57;5.60;;;14.60;99.90;;;;;;5036983;28;20580;-85
2022/05/03 09:12:49;;;;;;;8.10;5.27;;;14.70;99.90;;;;;;5038882;28;20181;-84
2022/05/03 09:15:28;;;;;;;7.77;5.50;;;14.70;1.00;;;;;;5042632;28;20176;-84
2022/05/03 09:17:54;;;;;;;7.13;5.50;;;14.70;1.00;;;;;;5042405;28;20605;-81
2022/05/03 09:26:11;;;;;;;7.20;4.67;;;14.90;1.00;;;;;;5057282;28;20234;-83
2022/05/03 09:29:05;;;;;;;10.10;5.03;;;15.00;99.90;;;;;;5056075;28;20179;-83
2022/05/03 09:31:42;;;;;;;7.73;5.33;;;15.20;1.00;;;;;;5049467;28;20188;-82
2022/05/03 09:34:27;;;;;;;7.10;4.90;;;15.30;1.00;;;;;;5073152;28;20226;-83
2022/05/03 09:36:54;;;;;;;8.93;4.70;;;15.30;99.90;;;;;;5058299;28;20180;-82
2022/05/03 09:39:31;;;;;;;7.27;5.37;;;15.40;99.90;;;;;;5058359;28;20168;-81
2022/05/03 09:42:09;;;;;;;8.97;5.27;;;15.40;99.90;;;;;;5057433;28;20160;-84
2022/05/03 09:44:36;;;;;;;6.60;5.33;;;15.40;99.90;;;;;;5072699;28;20217;-85
2022/05/03 09:47:08;;;;;;;7.73;5.97;;;15.50;1.00;;;;;;5057838;28;20201;-81
2022/05/03 09:49:37;;;;;;;7.67;5.27;;;15.60;99.90;;;;;;5057357;28;20169;-83
2022/05/03 09:52:04;;;;;;;6.10;4.70;;;15.90;1.00;;;;;;5017366;28;20170;-83
2022/05/03 09:54:49;;;;;;;6.93;4.77;;;15.90;32.20;;;;;;5034069;28;20202;-83
2022/05/03 09:57:26;;;;;;;8.43;4.77;;;15.70;1.00;;;;;;5053251;28;20221;-83
2022/05/03 09:59:54;;;;;;;10.17;5.83;;;15.50;99.90;;;;;;5037127;28;20166;-82
2022/05/03 10:02:25;;;;;;;6.70;5.17;;;15.60;99.90;;;;;;5036381;28;20189;-81
2022/05/03 10:04:52;;;;;;;15.13;5.53;;;15.60;99.90;;;;;;5037189;28;20197;-82
2022/05/03 10:07:19;;;;;;;6.97;5.50;;;15.80;99.90;;;;;;5045985;28;20264;-82
2022/05/03 10:09:46;;;;;;;8.47;6.00;;;15.90;99.90;;;;;;5045751;28;20185;-84
2022/05/03 10:12:13;;;;;;;10.73;6.03;;;16.00;31.80;;;;;;5041015;28;20165;-83
2022/05/03 10:14:42;;;;;;;10.47;6.70;;;16.10;99.90;;;;;;5037870;28;20703;-83
2022/05/03 10:22:45;;;;;;;7.80;5.37;;;16.30;99.90;;;;;;5037282;28;20652;-83
2022/05/03 10:25:11;;;;;;;9.63;5.73;;;16.40;1.00;;;;;;5037107;28;20288;-84
2022/05/03 10:27:57;;;;;;;8.70;5.27;;;16.50;99.90;;;;;;5035533;28;20205;-84
2022/05/03 10:30:26;;;;;;;6.33;5.40;;;16.50;1.00;;;;;;5036433;28;20260;-84
2022/05/03 10:33:30;;;;;;;6.03;4.30;;;16.40;99.90;;;;;;5037508;28;20170;-83
2022/05/03 10:35:58;;;;;;;7.13;5.07;;;16.60;99.90;;;;;;5032206;28;20193;-83
2022/05/03 10:38:52;;;;;;;7.57;5.87;;;16.60;99.90;;;;;;5038164;28;20561;-82
2022/05/03 10:41:24;;;;;;;7.07;5.67;;;16.50;99.90;;;;;;5039367;28;20181;-82
2022/05/03 10:43:50;;;;;;;7.93;6.00;;;16.70;99.90;;;;;;5041299;28;20194;-83
2022/05/03 10:46:23;;;;;;;7.03;6.03;;;16.70;99.90;;;;;;5035973;28;20213;-83
2022/05/03 10:49:09;;;;;;;7.13;6.27;;;16.80;99.90;;;;;;5036897;28;20211;-84
2022/05/03 10:51:35;;;;;;;10.33;5.87;;;16.80;99.90;;;;;;5035998;28;20593;-84
2022/05/03 10:54:02;;;;;;;8.97;7.33;;;16.90;56.50;;;;;;5037620;28;20222;-83
2022/05/03 10:56:28;;;;;;;10.17;6.10;;;16.90;10.00;;;;;;5035286;28;20192;-84
2022/05/03 10:59:10;;;;;;;8.53;6.70;;;17.00;52.90;;;;;;5037792;28;20171;-83
2022/05/03 11:01:54;;;;;;;6.43;5.53;;;16.70;62.50;;;;;;5036872;28;20260;-83
2022/05/03 11:04:21;;;;;;;7.30;6.03;;;16.80;1.00;;;;;;5038201;28;20235;-83
2022/05/03 11:06:49;;;;;;;8.00;5.90;;;16.80;1.00;;;;;;5051589;28;20165;-82
2022/05/03 11:09:35;;;;;;;9.33;5.60;;;16.90;1.00;;;;;;5064801;28;20201;-85
2022/05/03 11:12:06;;;;;;;9.00;6.47;;;17.10;1.00;;;;;;5043316;28;20246;-82
2022/05/03 11:14:31;;;;;;;6.33;5.60;;;17.20;1.00;;;;;;5043616;28;20170;-81
2022/05/03 11:17:10;;;;;;;7.87;7.03;;;17.20;1.00;;;;;;5037213;28;20534;-82
2022/05/03 11:19:39;;;;;;;8.87;6.53;;;17.00;1.00;;;;;;5035921;28;20684;-83
2022/05/03 11:22:12;;;;;;;8.00;6.27;;;17.10;14.90;;;;;;5036444;28;20170;-82
2022/05/03 11:24:46;;;;;;;10.40;6.30;;;17.20;4.90;;;;;;5044230;28;20281;-81
2022/05/03 11:27:14;;;;;;;7.70;5.97;;;17.40;1.00;;;;;;5054777;28;20184;-84
2022/05/03 11:29:49;;;;;;;9.60;6.63;;;17.20;1.00;;;;;;5052616;28;20181;-84
2022/05/03 11:32:37;;;;;;;6.63;5.40;;;17.10;1.00;;;;;;5042767;28;20166;-81
2022/05/03 11:35:06;;;;;;;8.73;6.40;;;17.20;1.00;;;;;;5039288;28;20631;-84
2022/05/03 11:38:02;;;;;;;8.33;6.00;;;17.30;1.00;;;;;;5035452;28;20692;-84
2022/05/03 11:40:30;;;;;;;11.37;6.20;;;17.50;1.00;;;;;;5036186;28;20180;-85
2022/05/03 11:42:56;;;;;;;7.37;6.23;;;17.70;1.00;;;;;;5035145;28;20256;-83
2022/05/03 11:45:22;;;;;;;8.23;6.13;;;17.80;1.00;;;;;;5034834;28;20233;-83
2022/05/03 11:47:49;;;;;;;6.87;5.03;;;18.00;1.00;;;;;;5034993;28;20593;-84
2022/05/03 11:56:04;;;;;;;7.53;5.77;;;17.80;99.90;;;;;;5045562;28;20245;-84
2022/05/03 11:58:31;;;;;;;8.13;6.80;;;17.70;99.90;;;;;;5044752;28;20264;-84
2022/05/03 12:01:01;;;;;;;7.90;6.23;;;17.80;1.00;;;;;;5053710;28;20150;-85
2022/05/03 12:03:28;;;;;;;7.10;5.77;;;17.80;99.90;;;;;;5054283;28;20212;-84
2022/05/03 12:05:59;;;;;;;11.97;5.70;;;18.00;1.00;;;;;;5059955;28;20181;-83
2022/05/03 12:08:27;;;;;;;6.43;5.27;;;18.10;99.90;;;;;;5059409;28;20158;-83
2022/05/03 12:10:56;;;;;;;7.80;5.63;;;17.90;99.90;;;;;;5052038;28;20176;-83
2022/05/03 12:13:22;;;;;;;7.83;5.30;;;18.10;99.90;;;;;;5052623;28;20177;-81
2022/05/03 12:15:50;;;;;;;7.33;5.80;;;18.40;99.90;;;;;;5064705;28;20192;-80
2022/05/03 12:18:20;;;;;;;7.57;5.57;;;18.40;99.90;;;;;;5051787;28;20256;-85
2022/05/03 12:20:58;;;;;;;8.43;5.87;;;18.60;99.90;;;;;;5047240;28;20161;-80
2022/05/03 12:23:30;;;;;;;6.90;5.00;;;18.30;99.90;;;;;;5080613;28;20569;-83
2022/05/03 12:26:16;;;;;;;9.17;5.90;;;18.30;99.90;;;;;;5063113;28;20221;-85
2022/05/03 12:28:53;;;;;;;6.27;5.10;;;18.00;99.90;;;;;;5080646;28;20222;-83
2022/05/03 12:31:22;;;;;;;7.93;6.57;;;18.00;99.90;;;;;;5096894;28;20180;-81
2022/05/03 12:33:54;;;;;;;9.53;6.43;;;18.00;1.00;;;;;;5095417;28;20190;-81
2022/05/03 12:36:42;;;;;;;6.13;5.03;;;18.40;99.90;;;;;;5080955;28;20148;-83
2022/05/03 12:39:10;;;;;;;7.13;5.17;;;18.40;99.90;;;;;;5080729;28;20226;-85
2022/05/03 12:41:38;;;;;;;8.67;5.23;;;18.10;99.90;;;;;;5079193;28;20204;-83
2022/05/03 12:44:21;;;;;;;7.83;5.40;;;18.10;99.90;;;;;;5076594;28;20178;-83
2022/05/03 12:46:51;;;;;;;6.90;4.83;;;18.30;99.90;;;;;;5075705;28;20188;-82
2022/05/03 12:49:23;;;;;;;6.57;5.87;;;18.40;99.90;;;;;;5070950;28;20160;-84
2022/05/03 12:52:14;;;;;;;8.47;6.40;;;18.40;99.90;;;;;;5049151;28;20185;-83
2022/05/03 12:54:42;;;;;;;8.27;6.43;;;18.10;99.90;;;;;;5039027;28;20576;-84
2022/05/03 13:00:03;;;;;;;8.17;6.83;;;17.50;1.00;;;;;;5038357;28;20204;-84
2022/05/03 13:02:29;;;;;;;8.27;6.37;;;17.60;1.20;;;;;;5038696;28;20185;-85
2022/05/03 13:04:54;;;;;;;8.47;7.40;;;17.60;1.00;;;;;;5036998;28;20213;-84
2022/05/03 13:07:20;;;;;;;7.60;6.63;;;17.70;1.00;;;;;;5038105;28;20649;-84
2022/05/03 13:09:45;;;;;;;7.87;6.83;;;17.80;1.00;;;;;;5038261;28;20242;-85
2022/05/03 13:12:11;;;;;;;7.83;7.03;;;17.80;1.00;;;;;;5036312;28;20580;-84
2022/05/03 13:14:37;;;;;;;9.33;7.70;;;17.90;1.00;;;;;;5038070;28;20643;-83
2022/05/03 13:17:04;;;;;;;10.17;8.20;;;18.00;1.00;;;;;;5036730;28;20294;-81
2022/05/03 13:19:33;;;;;;;10.40;7.67;;;17.90;1.00;;;;;;5037722;28;20196;-83
2022/05/03 13:22:00;;;;;;;10.10;8.67;;;18.00;1.00;;;;;;5041424;28;20303;-85
2022/05/03 13:24:26;;;;;;;9.90;7.90;;;18.10;1.00;;;;;;5044803;28;20297;-82
2022/05/03 13:26:52;;;;;;;16.47;8.83;;;18.30;1.00;;;;;;5019745;28;20254;-84
2022/05/03 13:29:20;;;;;;;8.90;7.97;;;18.40;1.00;;;;;;5037169;28;20166;-85
2022/05/03 13:31:46;;;;;;;9.83;7.33;;;18.40;1.00;;;;;;5037562;28;20696;-85
2022/05/03 13:34:13;;;;;;;9.13;8.13;;;18.40;1.00;;;;;;5037744;28;20192;-83
2022/05/03 13:42:10;;;;;;;8.70;7.27;;;17.90;1.00;;;;;;5050494;28;20195;-84
2022/05/03 13:44:42;;;;;;;8.87;7.67;;;18.00;1.00;;;;;;5050408;28;20198;-84
2022/05/03 13:47:08;;;;;;;8.97;7.47;;;18.00;1.00;;;;;;5046727;28;20253;-83
2022/05/03 13:49:34;;;;;;;7.97;7.00;;;18.20;1.00;;;;;;5045448;28;20174;-83
2022/05/03 13:52:00;;;;;;;8.00;6.27;;;18.40;99.90;;;;;;5060214;28;20175;-84
2022/05/03 13:54:27;;;;;;;8.30;6.30;;;18.50;99.90;;;;;;5044651;28;20182;-82
2022/05/03 13:56:53;;;;;;;7.93;7.10;;;18.50;99.90;;;;;;5048187;28;20283;-82
2022/05/03 13:59:25;;;;;;;8.97;6.97;;;18.70;99.90;;;;;;5057138;28;20219;-84
2022/05/03 14:01:50;;;;;;;7.07;6.37;;;18.70;99.90;;;;;;5041416;28;20184;-83